Language: 


Des rapports , des résumés tant et plus, au choix de chacun....


Données Historiques de Météogheer
Journalier Rapport pour Février 27, 2017 Unitée:  Les deux    Impériale   Métrique
Suivant Jour »
Journalier Hebdomadaire Mensuel Annuel Sur mesure
  Max: Min: Moyenne:
Température: 51.4 °F /  10.8 °C 32 °F /  0.0 °C 47.3 °F /  8.5 °C
Point de rosée: 48.9 °F /  9.4 °C 35.8 °F /  2.1 °C 42.4 °F /  5.8 °C
Humidité: 98% 0% 83%
Vent: 29.3mph /  47.1km/h - 11.2mph /  18km/h
Rafales: 32.4mph /  52.1km/h - -
Vent- - SSW
Pression: 29.7 in /  1006.0 hPa 29.2 in /  988.0 hPa -
Pluie: 0.62 in /  15.7 mm    
Historical Graphs
 
 
Données tabulaires pour Février 27, 2017
Heure Température Point de rosée Pression Vent Vent Rafales Humidité Pluie Taux (Horaire) Conditions
00:01 51.1 °F /  10.6 °C 47.8 °F /  8.8 °C 29.7in /  1006.0hPa WSW 6.3mph /  10.1km/h 10.3mph /  16.6km/h 89% 0in /  0.0mm
00:06 51.3 °F /  10.7 °C 47.8 °F /  8.8 °C 29.7in /  1006.0hPa SW 8.1mph /  13.0km/h 12.5mph /  20.1km/h 88% 0in /  0.0mm
00:11 51.3 °F /  10.7 °C 47.1 °F /  8.4 °C 29.7in /  1006.0hPa SW 12.8mph /  20.6km/h 12.8mph /  20.6km/h 86% 0in /  0.0mm
00:16 51.4 °F /  10.8 °C 46.8 °F /  8.2 °C 29.7in /  1006.0hPa SW 6.3mph /  10.1km/h 12.8mph /  20.6km/h 84% 0in /  0.0mm
00:21 51.4 °F /  10.8 °C 46.4 °F /  8.0 °C 29.7in /  1006.0hPa WSW 10.1mph /  16.3km/h 12.1mph /  19.5km/h 83% 0in /  0.0mm
00:26 51.4 °F /  10.8 °C 46.4 °F /  8.0 °C 29.7in /  1006.0hPa SW 8.5mph /  13.7km/h 11mph /  17.7km/h 83% 0in /  0.0mm
00:31 51.4 °F /  10.8 °C 46 °F /  7.8 °C 29.7in /  1006.0hPa SW 8.7mph /  14.0km/h 13.4mph /  21.6km/h 82% 0in /  0.0mm
00:36 51.4 °F /  10.8 °C 45.9 °F /  7.7 °C 29.7in /  1006.0hPa SW 5.8mph /  9.3km/h 13.4mph /  21.6km/h 81% 0in /  0.0mm
00:41 51.4 °F /  10.8 °C 45.9 °F /  7.7 °C 29.7in /  1006.0hPa SSW 8.1mph /  13.0km/h 10.5mph /  16.9km/h 81% 0in /  0.0mm
00:46 51.4 °F /  10.8 °C 45.3 °F /  7.4 °C 29.7in /  1006.0hPa SSW 5.8mph /  9.3km/h 10.5mph /  16.9km/h 80% 0in /  0.0mm
00:51 51.4 °F /  10.8 °C 45.3 °F /  7.4 °C 29.7in /  1006.0hPa SSW 10.3mph /  16.6km/h 10.3mph /  16.6km/h 80% 0in /  0.0mm
00:56 51.4 °F /  10.8 °C 45.1 °F /  7.3 °C 29.7in /  1005.0hPa West 5.6mph /  9.0km/h 10.7mph /  17.2km/h 79% 0in /  0.0mm
01:01 51.4 °F /  10.8 °C 45.1 °F /  7.3 °C 29.7in /  1005.0hPa SW 3.8mph /  6.1km/h 10.7mph /  17.2km/h 79% 0in /  0.0mm
01:06 51.4 °F /  10.8 °C 45.1 °F /  7.3 °C 29.7in /  1005.0hPa SW 10.5mph /  16.9km/h 11mph /  17.7km/h 79% 0in /  0.0mm
01:11 51.4 °F /  10.8 °C 44.8 °F /  7.1 °C 29.7in /  1005.0hPa SSW 8.1mph /  13.0km/h 11mph /  17.7km/h 78% 0in /  0.0mm
01:16 51.3 °F /  10.7 °C 44.6 °F /  7.0 °C 29.7in /  1005.0hPa SW 11mph /  17.7km/h 12.1mph /  19.5km/h 78% 0in /  0.0mm
01:21 51.4 °F /  10.8 °C 44.1 °F /  6.7 °C 29.7in /  1005.0hPa SW 13.2mph /  21.2km/h 15.4mph /  24.8km/h 76% 0in /  0.0mm
01:26 51.4 °F /  10.8 °C 43.7 °F /  6.5 °C 29.7in /  1005.0hPa SSW 13.2mph /  21.2km/h 15.4mph /  24.8km/h 75% 0in /  0.0mm
01:31 51.4 °F /  10.8 °C 43.7 °F /  6.5 °C 29.7in /  1005.0hPa SSW 13mph /  20.9km/h 15.4mph /  24.8km/h 75% 0in /  0.0mm
01:36 51.3 °F /  10.7 °C 43.5 °F /  6.4 °C 29.7in /  1005.0hPa SW 10.7mph /  17.2km/h 13.2mph /  21.2km/h 75% 0in /  0.0mm
01:41 51.3 °F /  10.7 °C 43.5 °F /  6.4 °C 29.7in /  1005.0hPa WSW 7.4mph /  11.9km/h 13.2mph /  21.2km/h 75% 0in /  0.0mm
01:46 51.3 °F /  10.7 °C 43.5 °F /  6.4 °C 29.7in /  1005.0hPa SSW 6.5mph /  10.5km/h 15.2mph /  24.5km/h 75% 0in /  0.0mm
01:52 51.1 °F /  10.6 °C 43.3 °F /  6.3 °C 29.7in /  1005.0hPa WSW 10.1mph /  16.3km/h 15.2mph /  24.5km/h 75% 0in /  0.0mm
01:57 51.1 °F /  10.6 °C 43.3 °F /  6.3 °C 29.7in /  1005.0hPa SW 6.3mph /  10.1km/h 11mph /  17.7km/h 75% 0in /  0.0mm
02:02 32 °F /  0.0 °C 43.2 °F /  6.2 °C 29.7in /  1005.0hPa SSW 6.3mph /  10.1km/h 10.1mph /  16.3km/h 0% 0in /  0.0mm
02:07 50.5 °F /  10.3 °C 43.2 °F /  6.2 °C 29.7in /  1005.0hPa SSW 3.6mph /  5.8km/h 10.1mph /  16.3km/h 76% 0in /  0.0mm
02:12 50.4 °F /  10.2 °C 43.2 °F /  6.2 °C 29.7in /  1005.0hPa South 8.7mph /  14.0km/h 9.6mph /  15.4km/h 76% 0in /  0.0mm
02:17 50.2 °F /  10.1 °C 43.2 °F /  6.2 °C 29.7in /  1005.0hPa SSW 4.5mph /  7.2km/h 9.6mph /  15.4km/h 77% 0in /  0.0mm
02:22 50 °F /  10.0 °C 43.3 °F /  6.3 °C 29.7in /  1005.0hPa SSW 8.7mph /  14.0km/h 8.7mph /  14.0km/h 78% 0in /  0.0mm
02:27 49.8 °F /  9.9 °C 43.5 °F /  6.4 °C 29.7in /  1005.0hPa South 8.1mph /  13.0km/h 10.7mph /  17.2km/h 79% 0in /  0.0mm
02:32 49.8 °F /  9.9 °C 43.5 °F /  6.4 °C 29.7in /  1005.0hPa South 7.8mph /  12.6km/h 11.2mph /  18.0km/h 79% 0in /  0.0mm
02:37 49.8 °F /  9.9 °C 43.9 °F /  6.6 °C 29.6in /  1003.9hPa SSW 4.9mph /  7.9km/h 11.9mph /  19.1km/h 80% 0in /  0.0mm
02:42 49.6 °F /  9.8 °C 44.1 °F /  6.7 °C 29.6in /  1003.9hPa SW 3.4mph /  5.5km/h 11.9mph /  19.1km/h 81% 0in /  0.0mm
02:47 49.8 °F /  9.9 °C 44.2 °F /  6.8 °C 29.6in /  1003.9hPa SW 7.8mph /  12.6km/h 10.1mph /  16.3km/h 81% 0in /  0.0mm
02:52 49.8 °F /  9.9 °C 44.4 °F /  6.9 °C 29.6in /  1003.9hPa SW 8.5mph /  13.7km/h 9.6mph /  15.4km/h 82% 0in /  0.0mm
02:57 49.8 °F /  9.9 °C 44.2 °F /  6.8 °C 29.6in /  1003.9hPa SW 8.5mph /  13.7km/h 12.5mph /  20.1km/h 81% 0in /  0.0mm
03:02 49.8 °F /  9.9 °C 44.2 °F /  6.8 °C 29.6in /  1003.9hPa SSW 7.6mph /  12.2km/h 12.8mph /  20.6km/h 81% 0in /  0.0mm
03:07 50 °F /  10.0 °C 43.7 °F /  6.5 °C 29.6in /  1003.9hPa SSW 8.7mph /  14.0km/h 12.3mph /  19.8km/h 79% 0in /  0.0mm
03:12 50 °F /  10.0 °C 43.3 °F /  6.3 °C 29.6in /  1003.9hPa SSW 7.4mph /  11.9km/h 12.5mph /  20.1km/h 78% 0in /  0.0mm
03:17 50 °F /  10.0 °C 43.2 °F /  6.2 °C 29.6in /  1003.9hPa SSW 15.2mph /  24.5km/h 16.3mph /  26.2km/h 77% 0in /  0.0mm
03:22 50 °F /  10.0 °C 42.6 °F /  5.9 °C 29.6in /  1002.9hPa SW 8.1mph /  13.0km/h 16.3mph /  26.2km/h 76% 0in /  0.0mm
03:27 50 °F /  10.0 °C 42.6 °F /  5.9 °C 29.6in /  1002.9hPa WSW 13.2mph /  21.2km/h 15.4mph /  24.8km/h 76% 0in /  0.0mm
03:32 49.8 °F /  9.9 °C 42.3 °F /  5.7 °C 29.6in /  1002.9hPa SSW 12.1mph /  19.5km/h 15.4mph /  24.8km/h 75% 0in /  0.0mm
03:37 49.8 °F /  9.9 °C 42.3 °F /  5.7 °C 29.6in /  1002.9hPa SSW 10.7mph /  17.2km/h 15.4mph /  24.8km/h 75% 0in /  0.0mm
03:42 49.6 °F /  9.8 °C 42.1 °F /  5.6 °C 29.6in /  1002.9hPa SW 12.3mph /  19.8km/h 14.3mph /  23.0km/h 75% 0in /  0.0mm
03:47 49.6 °F /  9.8 °C 42.4 °F /  5.8 °C 29.6in /  1002.9hPa SW 10.1mph /  16.3km/h 14.3mph /  23.0km/h 76% 0in /  0.0mm
03:52 49.5 °F /  9.7 °C 42.3 °F /  5.7 °C 29.6in /  1001.9hPa South 10.5mph /  16.9km/h 12.5mph /  20.1km/h 76% 0in /  0.0mm
03:57 49.5 °F /  9.7 °C 42.3 °F /  5.7 °C 29.6in /  1001.9hPa SSW 10.5mph /  16.9km/h 12.5mph /  20.1km/h 76% 0in /  0.0mm
04:02 49.5 °F /  9.7 °C 42.3 °F /  5.7 °C 29.6in /  1001.9hPa SSW 6.3mph /  10.1km/h 12.3mph /  19.8km/h 76% 0in /  0.0mm
04:07 49.5 °F /  9.7 °C 42.3 °F /  5.7 °C 29.6in /  1001.9hPa SSW 8.5mph /  13.7km/h 12.3mph /  19.8km/h 76% 0in /  0.0mm
04:12 49.3 °F /  9.6 °C 42.1 °F /  5.6 °C 29.6in /  1001.9hPa SSW 8.5mph /  13.7km/h 13.2mph /  21.2km/h 76% 0in /  0.0mm
04:17 49.3 °F /  9.6 °C 42.4 °F /  5.8 °C 29.6in /  1001.9hPa SSW 9.8mph /  15.8km/h 13.2mph /  21.2km/h 77% 0in /  0.0mm
04:22 49.3 °F /  9.6 °C 42.4 °F /  5.8 °C 29.6in /  1002.9hPa SSW 10.7mph /  17.2km/h 13.2mph /  21.2km/h 77% 0in /  0.0mm
04:27 49.5 °F /  9.7 °C 42.6 °F /  5.9 °C 29.6in /  1002.9hPa SSW 7.6mph /  12.2km/h 13.2mph /  21.2km/h 77% 0in /  0.0mm
04:32 49.5 °F /  9.7 °C 43 °F /  6.1 °C 29.6in /  1002.9hPa South 5.8mph /  9.3km/h 12.8mph /  20.6km/h 78% 0in /  0.0mm
04:37 49.6 °F /  9.8 °C 42.6 °F /  5.9 °C 29.6in /  1001.9hPa SSW 5.8mph /  9.3km/h 12.5mph /  20.1km/h 77% 0in /  0.0mm
04:42 49.6 °F /  9.8 °C 42.6 °F /  5.9 °C 29.6in /  1001.9hPa South 6mph /  9.7km/h 12.1mph /  19.5km/h 77% 0in /  0.0mm
04:47 49.6 °F /  9.8 °C 42.6 °F /  5.9 °C 29.6in /  1001.9hPa SSW 11mph /  17.7km/h 14.3mph /  23.0km/h 77% 0in /  0.0mm
04:52 49.6 °F /  9.8 °C 42.6 °F /  5.9 °C 29.6in /  1001.9hPa SSW 8.1mph /  13.0km/h 14.5mph /  23.3km/h 77% 0in /  0.0mm
04:57 49.6 °F /  9.8 °C 42.6 °F /  5.9 °C 29.6in /  1001.9hPa SSW 7.4mph /  11.9km/h 14.5mph /  23.3km/h 77% 0in /  0.0mm
05:02 49.8 °F /  9.9 °C 43 °F /  6.1 °C 29.6in /  1001.9hPa South 9.8mph /  15.8km/h 21mph /  33.8km/h 77% 0in /  0.0mm
05:07 49.8 °F /  9.9 °C 43 °F /  6.1 °C 29.6in /  1001.9hPa SSW 10.5mph /  16.9km/h 21mph /  33.8km/h 77% 0in /  0.0mm
05:12 49.8 °F /  9.9 °C 43 °F /  6.1 °C 29.6in /  1001.9hPa SSW 9.8mph /  15.8km/h 17.4mph /  28.0km/h 77% 0in /  0.0mm
05:17 49.8 °F /  9.9 °C 43 °F /  6.1 °C 29.6in /  1001.9hPa WSW 10.1mph /  16.3km/h 13.2mph /  21.2km/h 77% 0in /  0.0mm
05:22 49.8 °F /  9.9 °C 43 °F /  6.1 °C 29.6in /  1000.9hPa SW 10.5mph /  16.9km/h 13.2mph /  21.2km/h 77% 0in /  0.0mm
05:27 49.6 °F /  9.8 °C 42.6 °F /  5.9 °C 29.6in /  1000.9hPa SW 7.8mph /  12.6km/h 12.8mph /  20.6km/h 77% 0in /  0.0mm
05:32 49.6 °F /  9.8 °C 42.6 °F /  5.9 °C 29.6in /  1000.9hPa SSW 10.7mph /  17.2km/h 13mph /  20.9km/h 77% 0in /  0.0mm
05:37 49.5 °F /  9.7 °C 43 °F /  6.1 °C 29.6in /  1000.9hPa SSW 9.8mph /  15.8km/h 13mph /  20.9km/h 78% 0in /  0.0mm
05:42 49.5 °F /  9.7 °C 42.6 °F /  5.9 °C 29.6in /  1000.9hPa SSW 7.4mph /  11.9km/h 15.9mph /  25.6km/h 77% 0in /  0.0mm
05:47 49.5 °F /  9.7 °C 42.6 °F /  5.9 °C 29.6in /  1000.9hPa SSW 10.3mph /  16.6km/h 15.9mph /  25.6km/h 77% 0in /  0.0mm
05:52 49.3 °F /  9.6 °C 42.6 °F /  5.9 °C 29.6in /  1000.9hPa SW 10.5mph /  16.9km/h 17mph /  27.4km/h 78% 0in /  0.0mm
05:57 49.3 °F /  9.6 °C 42.6 °F /  5.9 °C 29.6in /  1000.9hPa SSW 8.5mph /  13.7km/h 19.2mph /  30.9km/h 78% 0in /  0.0mm
06:02 49.6 °F /  9.8 °C 42.6 °F /  5.9 °C 29.6in /  1000.9hPa SSW 14.8mph /  23.8km/h 19.5mph /  31.4km/h 77% 0in /  0.0mm
06:07 49.6 °F /  9.8 °C 42.6 °F /  5.9 °C 29.6in /  1000.9hPa SW 11.4mph /  18.3km/h 19.5mph /  31.4km/h 77% 0in /  0.0mm
06:12 49.6 °F /  9.8 °C 42.6 °F /  5.9 °C 29.6in /  1000.9hPa South 7.4mph /  11.9km/h 15.4mph /  24.8km/h 77% 0in /  0.0mm
06:17 49.6 °F /  9.8 °C 42.4 °F /  5.8 °C 29.6in /  1000.9hPa WSW 8.7mph /  14.0km/h 17.4mph /  28.0km/h 76% 0in /  0.0mm
06:22 49.6 °F /  9.8 °C 42.4 °F /  5.8 °C 29.6in /  1000.9hPa South 9.8mph /  15.8km/h 17.4mph /  28.0km/h 76% 0in /  0.0mm
06:27 49.8 °F /  9.9 °C 42.3 °F /  5.7 °C 29.6in /  1000.9hPa SSW 10.1mph /  16.3km/h 17mph /  27.4km/h 75% 0in /  0.0mm
06:32 49.8 °F /  9.9 °C 42.3 °F /  5.7 °C 29.6in /  1000.9hPa SSW 12.3mph /  19.8km/h 17mph /  27.4km/h 75% 0in /  0.0mm
06:37 49.8 °F /  9.9 °C 41.9 °F /  5.5 °C 29.6in /  1000.9hPa SSW 14.5mph /  23.3km/h 15.2mph /  24.5km/h 74% 0in /  0.0mm
06:42 49.6 °F /  9.8 °C 41.7 °F /  5.4 °C 29.6in /  1000.9hPa SSW 20.1mph /  32.3km/h 20.8mph /  33.5km/h 74% 0in /  0.0mm
06:47 49.6 °F /  9.8 °C 41.4 °F /  5.2 °C 29.6in /  1000.9hPa SW 7.2mph /  11.6km/h 20.8mph /  33.5km/h 73% 0in /  0.0mm
06:52 49.6 °F /  9.8 °C 41.4 °F /  5.2 °C 29.5in /  999.9hPa SSW 8.5mph /  13.7km/h 19.2mph /  30.9km/h 73% 0in /  0.0mm
06:57 49.6 °F /  9.8 °C 41.4 °F /  5.2 °C 29.5in /  999.9hPa South 8.9mph /  14.3km/h 19.2mph /  30.9km/h 73% 0in /  0.0mm
07:02 49.6 °F /  9.8 °C 41.4 °F /  5.2 °C 29.5in /  999.9hPa South 11.9mph /  19.1km/h 17mph /  27.4km/h 73% 0in /  0.0mm
07:07 49.6 °F /  9.8 °C 41.4 °F /  5.2 °C 29.5in /  999.9hPa South 6.5mph /  10.5km/h 17.4mph /  28.0km/h 73% 0in /  0.0mm
07:12 49.6 °F /  9.8 °C 41.7 °F /  5.4 °C 29.5in /  999.9hPa South 11mph /  17.7km/h 17.4mph /  28.0km/h 74% 0in /  0.0mm
07:17 49.6 °F /  9.8 °C 41.4 °F /  5.2 °C 29.5in /  999.9hPa SSW 8.7mph /  14.0km/h 15.4mph /  24.8km/h 73% 0in /  0.0mm
07:22 49.6 °F /  9.8 °C 41.4 °F /  5.2 °C 29.5in /  998.9hPa SW 8.7mph /  14.0km/h 16.3mph /  26.2km/h 73% 0in /  0.0mm
07:27 49.6 °F /  9.8 °C 41.4 °F /  5.2 °C 29.5in /  998.9hPa South 12.1mph /  19.5km/h 17.2mph /  27.7km/h 73% 0in /  0.0mm
07:32 49.6 °F /  9.8 °C 41.4 °F /  5.2 °C 29.5in /  998.9hPa SSW 6mph /  9.7km/h 17.2mph /  27.7km/h 73% 0in /  0.0mm
07:37 49.6 °F /  9.8 °C 41.4 °F /  5.2 °C 29.5in /  997.9hPa SSW 9.8mph /  15.8km/h 17.7mph /  28.5km/h 73% 0in /  0.0mm
07:42 49.8 °F /  9.9 °C 41.5 °F /  5.3 °C 29.5in /  997.9hPa SSW 8.7mph /  14.0km/h 17.7mph /  28.5km/h 73% 0in /  0.0mm
07:47 49.8 °F /  9.9 °C 41.5 °F /  5.3 °C 29.5in /  997.9hPa SSW 12.5mph /  20.1km/h 17mph /  27.4km/h 73% 0in /  0.0mm
07:52 49.8 °F /  9.9 °C 41.5 °F /  5.3 °C 29.5in /  998.9hPa South 8.7mph /  14.0km/h 19.9mph /  32.0km/h 73% 0in /  0.0mm
07:57 49.8 °F /  9.9 °C 41.5 °F /  5.3 °C 29.5in /  998.9hPa SSW 5.6mph /  9.0km/h 19.9mph /  32.0km/h 73% 0in /  0.0mm
08:02 49.8 °F /  9.9 °C 41.2 °F /  5.1 °C 29.5in /  998.9hPa South 11mph /  17.7km/h 17.2mph /  27.7km/h 72% 0in /  0.0mm
08:07 49.8 °F /  9.9 °C 41.5 °F /  5.3 °C 29.5in /  998.9hPa SSW 10.7mph /  17.2km/h 17.2mph /  27.7km/h 73% 0in /  0.0mm
08:12 49.8 °F /  9.9 °C 41.5 °F /  5.3 °C 29.5in /  998.9hPa South 4.7mph /  7.6km/h 15.2mph /  24.5km/h 73% 0in /  0.0mm
08:17 49.8 °F /  9.9 °C 41.5 °F /  5.3 °C 29.5in /  998.9hPa SSW 7.4mph /  11.9km/h 19.9mph /  32.0km/h 73% 0in /  0.0mm
08:22 49.8 °F /  9.9 °C 41.2 °F /  5.1 °C 29.5in /  998.9hPa SSW 9.4mph /  15.1km/h 19.9mph /  32.0km/h 72% 0in /  0.0mm
08:27 50 °F /  10.0 °C 41.4 °F /  5.2 °C 29.5in /  998.9hPa SSW 12.1mph /  19.5km/h 18.1mph /  29.1km/h 72% 0in /  0.0mm
08:32 50 °F /  10.0 °C 41.4 °F /  5.2 °C 29.5in /  998.9hPa SSW 9.8mph /  15.8km/h 18.1mph /  29.1km/h 72% 0in /  0.0mm
08:37 50 °F /  10.0 °C 41.4 °F /  5.2 °C 29.5in /  998.9hPa SSW 14.5mph /  23.3km/h 18.1mph /  29.1km/h 72% 0in /  0.0mm
08:42 50 °F /  10.0 °C 41.7 °F /  5.4 °C 29.5in /  998.9hPa SW 10.3mph /  16.6km/h 21.3mph /  34.3km/h 73% 0in /  0.0mm
08:47 50 °F /  10.0 °C 41.7 °F /  5.4 °C 29.5in /  998.9hPa SSW 17mph /  27.4km/h 23.5mph /  37.8km/h 73% 0in /  0.0mm
08:52 50 °F /  10.0 °C 41.7 °F /  5.4 °C 29.5in /  998.9hPa SSW 10.1mph /  16.3km/h 23.5mph /  37.8km/h 73% 0in /  0.0mm
08:57 49.8 °F /  9.9 °C 41.5 °F /  5.3 °C 29.5in /  998.9hPa SSW 17.7mph /  28.5km/h 17.7mph /  28.5km/h 73% 0in /  0.0mm
09:02 49.8 °F /  9.9 °C 41.5 °F /  5.3 °C 29.5in /  998.9hPa South 10.7mph /  17.2km/h 17.7mph /  28.5km/h 73% 0in /  0.0mm
09:07 49.8 °F /  9.9 °C 41.5 °F /  5.3 °C 29.5in /  997.9hPa SSW 13.2mph /  21.2km/h 17.7mph /  28.5km/h 73% 0in /  0.0mm
09:12 50 °F /  10.0 °C 42.1 °F /  5.6 °C 29.5in /  997.9hPa SSW 7.6mph /  12.2km/h 19.7mph /  31.7km/h 74% 0in /  0.0mm
09:17 50 °F /  10.0 °C 42.1 °F /  5.6 °C 29.5in /  997.9hPa South 11mph /  17.7km/h 19.7mph /  31.7km/h 74% 0in /  0.0mm
09:22 50 °F /  10.0 °C 42.1 °F /  5.6 °C 29.5in /  997.9hPa South 7.4mph /  11.9km/h 15.4mph /  24.8km/h 74% 0in /  0.0mm
09:27 50 °F /  10.0 °C 42.1 °F /  5.6 °C 29.5in /  997.9hPa SSW 14.1mph /  22.7km/h 15.2mph /  24.5km/h 74% 0in /  0.0mm
09:32 50 °F /  10.0 °C 42.1 °F /  5.6 °C 29.5in /  997.9hPa SSW 13mph /  20.9km/h 22.4mph /  36.0km/h 74% 0in /  0.0mm
09:37 50 °F /  10.0 °C 42.1 °F /  5.6 °C 29.5in /  997.9hPa South 6.5mph /  10.5km/h 22.8mph /  36.7km/h 74% 0in /  0.0mm
09:42 50 °F /  10.0 °C 42.4 °F /  5.8 °C 29.5in /  997.9hPa SW 9.8mph /  15.8km/h 22.8mph /  36.7km/h 75% 0in /  0.0mm
09:47 50 °F /  10.0 °C 42.4 °F /  5.8 °C 29.5in /  997.9hPa SW 12.1mph /  19.5km/h 21.9mph /  35.2km/h 75% 0in /  0.0mm
09:52 49.8 °F /  9.9 °C 43.2 °F /  6.2 °C 29.5in /  997.9hPa SSW 17mph /  27.4km/h 21.9mph /  35.2km/h 78% 0in /  0.0mm
09:57 49.5 °F /  9.7 °C 43.9 °F /  6.6 °C 29.5in /  997.9hPa SW 8.1mph /  13.0km/h 17mph /  27.4km/h 81% 0in /  0.0mm
10:02 49.3 °F /  9.6 °C 44.1 °F /  6.7 °C 29.5in /  997.9hPa WSW 6.5mph /  10.5km/h 17.7mph /  28.5km/h 82% 0in /  0.0mm
10:07 49.3 °F /  9.6 °C 44.2 °F /  6.8 °C 29.4in /  996.8hPa South 10.7mph /  17.2km/h 17.7mph /  28.5km/h 83% 0in /  0.0mm
10:12 49.1 °F /  9.5 °C 44.4 °F /  6.9 °C 29.4in /  996.8hPa SSW 10.3mph /  16.6km/h 15.4mph /  24.8km/h 84% 0in /  0.0mm
10:17 49.1 °F /  9.5 °C 44.8 °F /  7.1 °C 29.4in /  996.8hPa SSW 10.5mph /  16.9km/h 17.2mph /  27.7km/h 85% 0in /  0.0mm
10:22 49.1 °F /  9.5 °C 45.1 °F /  7.3 °C 29.4in /  996.8hPa SSW 8.5mph /  13.7km/h 17.2mph /  27.7km/h 86% 0.01in /  0.3mm
10:27 48.9 °F /  9.4 °C 45.1 °F /  7.3 °C 29.4in /  996.8hPa SW 7.8mph /  12.6km/h 14.8mph /  23.8km/h 87% 0.01in /  0.3mm
10:32 49.1 °F /  9.5 °C 45.3 °F /  7.4 °C 29.4in /  996.8hPa SSW 8.1mph /  13.0km/h 13.2mph /  21.2km/h 87% 0.01in /  0.3mm
10:37 49.1 °F /  9.5 °C 45.7 °F /  7.6 °C 29.4in /  996.8hPa South 5.8mph /  9.3km/h 14.1mph /  22.7km/h 88% 0.02in /  0.5mm
10:42 48.9 °F /  9.4 °C 45.9 °F /  7.7 °C 29.4in /  996.8hPa SSW 6mph /  9.7km/h 14.5mph /  23.3km/h 89% 0.02in /  0.5mm
10:47 48.9 °F /  9.4 °C 46 °F /  7.8 °C 29.4in /  996.8hPa SSW 12.5mph /  20.1km/h 17.7mph /  28.5km/h 90% 0.02in /  0.5mm
10:52 48.7 °F /  9.3 °C 46.2 °F /  7.9 °C 29.4in /  996.8hPa South 10.3mph /  16.6km/h 17.7mph /  28.5km/h 91% 0.04in /  1.0mm
10:57 48.7 °F /  9.3 °C 46.6 °F /  8.1 °C 29.4in /  996.8hPa SSW 11mph /  17.7km/h 15.4mph /  24.8km/h 92% 0.07in /  1.8mm
11:02 48.6 °F /  9.2 °C 46.6 °F /  8.1 °C 29.4in /  996.8hPa South 12.1mph /  19.5km/h 15.4mph /  24.8km/h 93% 0.08in /  2.0mm
11:07 48.6 °F /  9.2 °C 46.9 °F /  8.3 °C 29.4in /  996.8hPa South 8.1mph /  13.0km/h 12.8mph /  20.6km/h 94% 0.08in /  2.0mm
11:12 48.7 °F /  9.3 °C 47.1 °F /  8.4 °C 29.4in /  996.8hPa SSW 15.4mph /  24.8km/h 16.6mph /  26.7km/h 94% 0.1in /  2.5mm
11:17 48.7 °F /  9.3 °C 47.5 °F /  8.6 °C 29.4in /  996.8hPa South 13.9mph /  22.4km/h 19.9mph /  32.0km/h 95% 0.1in /  2.5mm
11:22 48.7 °F /  9.3 °C 47.5 °F /  8.6 °C 29.4in /  996.2hPa SSW 18.6mph /  29.9km/h 19.9mph /  32.0km/h 95% 0.1in /  2.5mm
11:27 48.7 °F /  9.3 °C 47.5 °F /  8.6 °C 29.4in /  996.2hPa South 13mph /  20.9km/h 18.6mph /  29.9km/h 95% 0.11in /  2.8mm
11:32 48.7 °F /  9.3 °C 47.7 °F /  8.7 °C 29.4in /  996.2hPa South 15.4mph /  24.8km/h 19mph /  30.6km/h 96% 0.11in /  2.8mm
11:37 48.7 °F /  9.3 °C 47.7 °F /  8.7 °C 29.4in /  995.1hPa South 10.5mph /  16.9km/h 19mph /  30.6km/h 96% 0.12in /  3.0mm
11:42 48.7 °F /  9.3 °C 47.7 °F /  8.7 °C 29.4in /  995.1hPa SSW 11mph /  17.7km/h 17.4mph /  28.0km/h 96% 0.12in /  3.0mm
11:47 48.7 °F /  9.3 °C 47.7 °F /  8.7 °C 29.4in /  995.1hPa SSE 12.8mph /  20.6km/h 16.8mph /  27.0km/h 96% 0.12in /  3.0mm
11:52 48.6 °F /  9.2 °C 47.5 °F /  8.6 °C 29.4in /  994.1hPa SSE 12.8mph /  20.6km/h 12.8mph /  20.6km/h 96% 0.12in /  3.0mm
11:57 48.6 °F /  9.2 °C 47.5 °F /  8.6 °C 29.4in /  994.1hPa South 12.1mph /  19.5km/h 12.8mph /  20.6km/h 96% 0.1in /  2.5mm
12:02 48.6 °F /  9.2 °C 47.5 °F /  8.6 °C 29.4in /  994.1hPa SSW 7.8mph /  12.6km/h 12.8mph /  20.6km/h 96% 0.09in /  2.3mm
12:07 48.6 °F /  9.2 °C 47.5 °F /  8.6 °C 29.4in /  995.1hPa South 8.7mph /  14.0km/h 12.1mph /  19.5km/h 96% 0.09in /  2.3mm
12:12 48.6 °F /  9.2 °C 47.5 °F /  8.6 °C 29.4in /  995.1hPa SSW 10.7mph /  17.2km/h 15.2mph /  24.5km/h 96% 0.09in /  2.3mm
12:17 48.6 °F /  9.2 °C 47.5 °F /  8.6 °C 29.4in /  995.1hPa South 11mph /  17.7km/h 15.2mph /  24.5km/h 96% 0.09in /  2.3mm
12:22 48.6 °F /  9.2 °C 47.5 °F /  8.6 °C 29.4in /  994.1hPa SSW 5.4mph /  8.7km/h 13mph /  20.9km/h 96% 0.09in /  2.3mm
12:27 48.6 °F /  9.2 °C 47.5 °F /  8.6 °C 29.4in /  994.1hPa SSW 8.5mph /  13.7km/h 13.4mph /  21.6km/h 96% 0.09in /  2.3mm
12:32 48.6 °F /  9.2 °C 47.8 °F /  8.8 °C 29.4in /  994.1hPa SSW 10.5mph /  16.9km/h 13.4mph /  21.6km/h 97% 0.09in /  2.3mm
12:37 48.6 °F /  9.2 °C 47.8 °F /  8.8 °C 29.4in /  994.1hPa South 8.7mph /  14.0km/h 12.3mph /  19.8km/h 97% 0.09in /  2.3mm
12:42 48.6 °F /  9.2 °C 47.8 °F /  8.8 °C 29.4in /  994.1hPa South 8.1mph /  13.0km/h 12.8mph /  20.6km/h 97% 0.1in /  2.5mm
12:47 48.7 °F /  9.3 °C 47.8 °F /  8.8 °C 29.4in /  994.1hPa SSW 13.2mph /  21.2km/h 14.1mph /  22.7km/h 97% 0.11in /  2.8mm
12:48 48.7 °F /  9.3 °C 47.8 °F /  8.8 °C 29.4in /  994.1hPa South 12.3mph /  19.8km/h 14.1mph /  22.7km/h 97% 0.11in /  2.8mm
12:53 48.7 °F /  9.3 °C 47.8 °F /  8.8 °C 29.3in /  993.1hPa South 9.8mph /  15.8km/h 14.5mph /  23.3km/h 97% 0.13in /  3.3mm
12:58 48.9 °F /  9.4 °C 48 °F /  8.9 °C 29.3in /  993.1hPa SSW 10.7mph /  17.2km/h 14.5mph /  23.3km/h 97% 0.13in /  3.3mm
13:03 48.9 °F /  9.4 °C 48 °F /  8.9 °C 29.3in /  993.1hPa SSW 6.5mph /  10.5km/h 13.6mph /  21.9km/h 97% 0.13in /  3.3mm
13:08 48.9 °F /  9.4 °C 48 °F /  8.9 °C 29.3in /  993.1hPa SSW 10.3mph /  16.6km/h 17.4mph /  28.0km/h 97% 0.13in /  3.3mm
13:13 49.1 °F /  9.5 °C 48.4 °F /  9.1 °C 29.3in /  993.1hPa SSW 7.4mph /  11.9km/h 17.4mph /  28.0km/h 97% 0.14in /  3.6mm
13:18 49.1 °F /  9.5 °C 48.4 °F /  9.1 °C 29.3in /  993.1hPa SW 10.3mph /  16.6km/h 13.4mph /  21.6km/h 97% 0.15in /  3.8mm
13:23 49.1 °F /  9.5 °C 48.4 °F /  9.1 °C 29.3in /  992.1hPa South 10.5mph /  16.9km/h 14.8mph /  23.8km/h 97% 0.19in /  4.8mm
13:28 49.5 °F /  9.7 °C 48.6 °F /  9.2 °C 29.3in /  992.1hPa SSW 9.8mph /  15.8km/h 17.2mph /  27.7km/h 97% 0.19in /  4.8mm
13:33 49.8 °F /  9.9 °C 48.9 °F /  9.4 °C 29.3in /  992.1hPa South 10.5mph /  16.9km/h 22.8mph /  36.7km/h 97% 0.17in /  4.3mm
13:38 49.8 °F /  9.9 °C 48.9 °F /  9.4 °C 29.3in /  991.1hPa South 15.7mph /  25.3km/h 22.8mph /  36.7km/h 97% 0.17in /  4.3mm
13:43 49.5 °F /  9.7 °C 48.4 °F /  9.1 °C 29.3in /  991.1hPa South 19.7mph /  31.7km/h 24.2mph /  38.9km/h 96% 0.15in /  3.8mm
13:48 49.1 °F /  9.5 °C 46.9 °F /  8.3 °C 29.3in /  991.1hPa SSW 10.1mph /  16.3km/h 24.2mph /  38.9km/h 92% 0.15in /  3.8mm
13:53 48.9 °F /  9.4 °C 45.5 °F /  7.5 °C 29.2in /  990.1hPa South 12.3mph /  19.8km/h 22.1mph /  35.6km/h 88% 0.11in /  2.8mm
13:58 48.7 °F /  9.3 °C 44.8 °F /  7.1 °C 29.2in /  990.1hPa WSW 10.5mph /  16.9km/h 21.9mph /  35.2km/h 86% 0.1in /  2.5mm
14:03 48.6 °F /  9.2 °C 43.7 °F /  6.5 °C 29.2in /  990.1hPa South 12.8mph /  20.6km/h 25.9mph /  41.7km/h 83% 0.1in /  2.5mm
14:08 48.2 °F /  9.0 °C 43.3 °F /  6.3 °C 29.3in /  991.1hPa SSW 8.1mph /  13.0km/h 25.9mph /  41.7km/h 83% 0.09in /  2.3mm
14:13 47.8 °F /  8.8 °C 43 °F /  6.1 °C 29.3in /  991.1hPa SSW 11.9mph /  19.1km/h 22.6mph /  36.4km/h 83% 0.07in /  1.8mm
14:18 47.5 °F /  8.6 °C 43 °F /  6.1 °C 29.3in /  991.1hPa SSW 19.5mph /  31.4km/h 22.6mph /  36.4km/h 84% 0.04in /  1.0mm
14:23 47.3 °F /  8.5 °C 43.2 °F /  6.2 °C 29.3in /  991.1hPa SSW 10.3mph /  16.6km/h 19.5mph /  31.4km/h 85% 0.01in /  0.3mm
14:28 47.1 °F /  8.4 °C 43.2 °F /  6.2 °C 29.3in /  991.1hPa South 9.4mph /  15.1km/h 18.6mph /  29.9km/h 86% 0in /  0.0mm
14:33 47.1 °F /  8.4 °C 43.2 °F /  6.2 °C 29.3in /  991.1hPa SSW 10.5mph /  16.9km/h 24.4mph /  39.3km/h 86% 0in /  0.0mm
14:38 47.1 °F /  8.4 °C 43.5 °F /  6.4 °C 29.2in /  989.1hPa SSW 6.5mph /  10.5km/h 24.4mph /  39.3km/h 87% 0.01in /  0.3mm
14:43 47.3 °F /  8.5 °C 43.7 °F /  6.5 °C 29.2in /  989.1hPa SSW 7.6mph /  12.2km/h 16.3mph /  26.2km/h 87% 0.01in /  0.3mm
14:48 47.5 °F /  8.6 °C 43.9 °F /  6.6 °C 29.2in /  989.1hPa SSW 10.3mph /  16.6km/h 16.3mph /  26.2km/h 87% 0.01in /  0.3mm
14:53 47.5 °F /  8.6 °C 43.9 °F /  6.6 °C 29.2in /  989.1hPa SSW 5.4mph /  8.7km/h 13.2mph /  21.2km/h 87% 0.01in /  0.3mm
14:58 47.5 °F /  8.6 °C 43.5 °F /  6.4 °C 29.2in /  989.1hPa SSW 8.1mph /  13.0km/h 15.4mph /  24.8km/h 86% 0.01in /  0.3mm
15:03 47.7 °F /  8.7 °C 43.7 °F /  6.5 °C 29.2in /  989.1hPa SSW 10.3mph /  16.6km/h 15.4mph /  24.8km/h 86% 0.01in /  0.3mm
15:08 48 °F /  8.9 °C 43.9 °F /  6.6 °C 29.2in /  989.1hPa SSW 7.8mph /  12.6km/h 15.9mph /  25.6km/h 85% 0.01in /  0.3mm
15:13 48.6 °F /  9.2 °C 44.2 °F /  6.8 °C 29.2in /  989.1hPa SSE 12.3mph /  19.8km/h 15.9mph /  25.6km/h 85% 0.01in /  0.3mm
15:18 49.5 °F /  9.7 °C 45.1 °F /  7.3 °C 29.2in /  989.1hPa SW 13.2mph /  21.2km/h 15.2mph /  24.5km/h 85% 0.01in /  0.3mm
15:23 49.5 °F /  9.7 °C 44.8 °F /  7.1 °C 29.2in /  989.1hPa SSW 14.1mph /  22.7km/h 19.5mph /  31.4km/h 84% 0.01in /  0.3mm
15:28 49.5 °F /  9.7 °C 44.4 °F /  6.9 °C 29.2in /  989.1hPa SSW 10.3mph /  16.6km/h 19.5mph /  31.4km/h 83% 0.01in /  0.3mm
15:33 49.3 °F /  9.6 °C 44.2 °F /  6.8 °C 29.2in /  989.1hPa SW 15.4mph /  24.8km/h 17.4mph /  28.0km/h 83% 0.01in /  0.3mm
15:38 48.7 °F /  9.3 °C 44.4 °F /  6.9 °C 29.2in /  989.1hPa WSW 17mph /  27.4km/h 17.4mph /  28.0km/h 85% 0.01in /  0.3mm
15:43 48.4 °F /  9.1 °C 44.8 °F /  7.1 °C 29.2in /  989.1hPa SW 23.3mph /  37.5km/h 26.6mph /  42.8km/h 87% 0.03in /  0.8mm
15:48 48 °F /  8.9 °C 44.4 °F /  6.9 °C 29.2in /  989.1hPa WSW 22.4mph /  36.0km/h 32.4mph /  52.1km/h 87% 0.03in /  0.8mm
15:53 47.8 °F /  8.8 °C 44.4 °F /  6.9 °C 29.2in /  989.1hPa WSW 15.4mph /  24.8km/h 32.4mph /  52.1km/h 88% 0.05in /  1.3mm
15:58 47.5 °F /  8.6 °C 44.1 °F /  6.7 °C 29.2in /  989.1hPa WSW 19.5mph /  31.4km/h 22.6mph /  36.4km/h 88% 0.05in /  1.3mm
16:03 47.1 °F /  8.4 °C 43.2 °F /  6.2 °C 29.2in /  989.1hPa SSW 10.3mph /  16.6km/h 23.3mph /  37.5km/h 86% 0.05in /  1.3mm
16:08 46.9 °F /  8.3 °C 43.3 °F /  6.3 °C 29.2in /  989.1hPa SW 11mph /  17.7km/h 23.3mph /  37.5km/h 87% 0.05in /  1.3mm
16:13 46.8 °F /  8.2 °C 43.2 °F /  6.2 °C 29.2in /  989.1hPa SSW 13mph /  20.9km/h 17.4mph /  28.0km/h 87% 0.05in /  1.3mm
16:18 46.6 °F /  8.1 °C 43 °F /  6.1 °C 29.2in /  989.1hPa WSW 13.9mph /  22.4km/h 19.2mph /  30.9km/h 87% 0.05in /  1.3mm
16:23 46.6 °F /  8.1 °C 42.4 °F /  5.8 °C 29.2in /  989.1hPa SSW 10.7mph /  17.2km/h 19.7mph /  31.7km/h 86% 0.05in /  1.3mm
16:28 46.2 °F /  7.9 °C 42.3 °F /  5.7 °C 29.2in /  989.1hPa SW 12.1mph /  19.5km/h 19.7mph /  31.7km/h 86% 0.05in /  1.3mm
16:33 46.2 °F /  7.9 °C 42.3 °F /  5.7 °C 29.2in /  989.1hPa SW 12.8mph /  20.6km/h 17.7mph /  28.5km/h 86% 0.05in /  1.3mm
16:38 46.2 °F /  7.9 °C 42.6 °F /  5.9 °C 29.2in /  989.1hPa SSW 10.3mph /  16.6km/h 17.7mph /  28.5km/h 87% 0.02in /  0.5mm
16:43 46.6 °F /  8.1 °C 43.3 °F /  6.3 °C 29.2in /  989.1hPa SW 12.8mph /  20.6km/h 13mph /  20.9km/h 88% 0.03in /  0.8mm
16:48 46.6 °F /  8.1 °C 43.3 °F /  6.3 °C 29.2in /  989.1hPa SSW 10.3mph /  16.6km/h 12.8mph /  20.6km/h 88% 0.03in /  0.8mm
16:53 46.8 °F /  8.2 °C 43.5 °F /  6.4 °C 29.2in /  988.0hPa WSW 10.5mph /  16.9km/h 12.8mph /  20.6km/h 88% 0.01in /  0.3mm
16:58 46.9 °F /  8.3 °C 43.3 °F /  6.3 °C 29.2in /  988.0hPa WSW 12.5mph /  20.1km/h 13.2mph /  21.2km/h 87% 0.01in /  0.3mm
17:03 47.1 °F /  8.4 °C 43.5 °F /  6.4 °C 29.2in /  988.0hPa WSW 10.7mph /  17.2km/h 14.5mph /  23.3km/h 87% 0.01in /  0.3mm
17:08 47.3 °F /  8.5 °C 43.3 °F /  6.3 °C 29.2in /  988.0hPa SSW 8.7mph /  14.0km/h 14.5mph /  23.3km/h 86% 0.01in /  0.3mm
17:13 47.3 °F /  8.5 °C 43.3 °F /  6.3 °C 29.2in /  988.0hPa SSW 8.7mph /  14.0km/h 13.9mph /  22.4km/h 86% 0.01in /  0.3mm
17:18 47.3 °F /  8.5 °C 43.2 °F /  6.2 °C 29.2in /  988.0hPa SW 10.1mph /  16.3km/h 13.2mph /  21.2km/h 85% 0.01in /  0.3mm
17:23 47.1 °F /  8.4 °C 43 °F /  6.1 °C 29.2in /  989.1hPa WSW 6.5mph /  10.5km/h 17.2mph /  27.7km/h 85% 0.01in /  0.3mm
17:28 47.1 °F /  8.4 °C 43 °F /  6.1 °C 29.2in /  989.1hPa SSW 10.3mph /  16.6km/h 17.2mph /  27.7km/h 85% 0.01in /  0.3mm
17:33 47.3 °F /  8.5 °C 43.2 °F /  6.2 °C 29.2in /  989.1hPa SW 9.8mph /  15.8km/h 16.1mph /  25.9km/h 85% 0.01in /  0.3mm
17:38 47.3 °F /  8.5 °C 43.2 °F /  6.2 °C 29.2in /  988.0hPa SSW 10.3mph /  16.6km/h 20.1mph /  32.3km/h 85% 0.01in /  0.3mm
17:43 47.3 °F /  8.5 °C 43.2 °F /  6.2 °C 29.2in /  988.0hPa SSW 10.1mph /  16.3km/h 20.1mph /  32.3km/h 85% 0in /  0.0mm
17:48 46.9 °F /  8.3 °C 42.6 °F /  5.9 °C 29.2in /  988.0hPa WSW 29.3mph /  47.1km/h 29.3mph /  47.1km/h 85% 0in /  0.0mm
17:53 45.9 °F /  7.7 °C 41.2 °F /  5.1 °C 29.2in /  989.1hPa WSW 19.9mph /  32.0km/h 29.3mph /  47.1km/h 83% 0.01in /  0.3mm
17:58 45 °F /  7.2 °C 40.3 °F /  4.6 °C 29.2in /  989.1hPa WSW 18.1mph /  29.1km/h 29.3mph /  47.1km/h 84% 0.01in /  0.3mm
18:03 44.2 °F /  6.8 °C 40.1 °F /  4.5 °C 29.2in /  989.1hPa WSW 15.4mph /  24.8km/h 19.9mph /  32.0km/h 85% 0.01in /  0.3mm
18:08 44.1 °F /  6.7 °C 40.5 °F /  4.7 °C 29.2in /  989.1hPa SW 18.1mph /  29.1km/h 21mph /  33.8km/h 87% 0.01in /  0.3mm
18:13 43.9 °F /  6.6 °C 40.3 °F /  4.6 °C 29.2in /  989.1hPa WSW 15.2mph /  24.5km/h 21mph /  33.8km/h 87% 0.01in /  0.3mm
18:18 43.5 °F /  6.4 °C 39.9 °F /  4.4 °C 29.2in /  989.1hPa WSW 13.9mph /  22.4km/h 18.6mph /  29.9km/h 87% 0.01in /  0.3mm
18:23 43.5 °F /  6.4 °C 39.9 °F /  4.4 °C 29.2in /  988.0hPa SW 14.5mph /  23.3km/h 18.6mph /  29.9km/h 87% 0.01in /  0.3mm
18:28 43.3 °F /  6.3 °C 39.9 °F /  4.4 °C 29.2in /  988.0hPa SW 17.4mph /  28.0km/h 17.4mph /  28.0km/h 88% 0.01in /  0.3mm
18:33 43.3 °F /  6.3 °C 39.9 °F /  4.4 °C 29.2in /  988.0hPa WSW 13mph /  20.9km/h 17.4mph /  28.0km/h 88% 0.02in /  0.5mm
18:38 43.3 °F /  6.3 °C 39.9 °F /  4.4 °C 29.2in /  988.0hPa SW 16.3mph /  26.2km/h 16.3mph /  26.2km/h 88% 0.02in /  0.5mm
18:43 43.5 °F /  6.4 °C 40.1 °F /  4.5 °C 29.2in /  988.0hPa SW 12.3mph /  19.8km/h 17.2mph /  27.7km/h 88% 0.02in /  0.5mm
18:48 43.5 °F /  6.4 °C 40.1 °F /  4.5 °C 29.2in /  988.0hPa WSW 11.2mph /  18.0km/h 17.7mph /  28.5km/h 88% 0.02in /  0.5mm
18:53 43.5 °F /  6.4 °C 40.1 °F /  4.5 °C 29.2in /  989.1hPa WSW 12.5mph /  20.1km/h 17.7mph /  28.5km/h 88% 0.01in /  0.3mm
18:58 43.5 °F /  6.4 °C 40.1 °F /  4.5 °C 29.2in /  989.1hPa WSW 10.7mph /  17.2km/h 16.1mph /  25.9km/h 88% 0.01in /  0.3mm
19:03 43.5 °F /  6.4 °C 39.9 °F /  4.4 °C 29.2in /  989.1hPa WSW 14.8mph /  23.8km/h 18.8mph /  30.2km/h 87% 0.01in /  0.3mm
19:08 43.9 °F /  6.6 °C 40.3 °F /  4.6 °C 29.2in /  989.1hPa WSW 17mph /  27.4km/h 19mph /  30.6km/h 87% 0.01in /  0.3mm
19:13 43.9 °F /  6.6 °C 39.9 °F /  4.4 °C 29.2in /  989.1hPa SW 11.2mph /  18.0km/h 19.9mph /  32.0km/h 86% 0.01in /  0.3mm
19:18 43.5 °F /  6.4 °C 39.4 °F /  4.1 °C 29.2in /  989.1hPa WSW 14.3mph /  23.0km/h 23.3mph /  37.5km/h 85% 0.01in /  0.3mm
19:23 43.5 °F /  6.4 °C 37.9 °F /  3.3 °C 29.2in /  989.1hPa WSW 18.8mph /  30.2km/h 23.3mph /  37.5km/h 80% 0.01in /  0.3mm
19:28 43.5 °F /  6.4 °C 37.4 °F /  3.0 °C 29.2in /  989.1hPa SW 16.6mph /  26.7km/h 26.4mph /  42.5km/h 79% 0.01in /  0.3mm
19:33 43.5 °F /  6.4 °C 36.7 °F /  2.6 °C 29.2in /  989.1hPa WSW 14.3mph /  23.0km/h 26.4mph /  42.5km/h 77% 0in /  0.0mm
19:38 43.5 °F /  6.4 °C 37 °F /  2.8 °C 29.2in /  989.1hPa WSW 22.6mph /  36.4km/h 23.7mph /  38.1km/h 78% 0in /  0.0mm
19:43 43.3 °F /  6.3 °C 36.9 °F /  2.7 °C 29.2in /  989.1hPa West 18.6mph /  29.9km/h 23mph /  37.0km/h 78% 0in /  0.0mm
19:48 43.5 °F /  6.4 °C 37 °F /  2.8 °C 29.2in /  989.1hPa WSW 18.1mph /  29.1km/h 27.7mph /  44.6km/h 78% 0in /  0.0mm
19:53 43.5 °F /  6.4 °C 37 °F /  2.8 °C 29.2in /  988.0hPa WSW 22.4mph /  36.0km/h 27.7mph /  44.6km/h 78% 0in /  0.0mm
19:58 43.5 °F /  6.4 °C 37.2 °F /  2.9 °C 29.2in /  988.0hPa WSW 14.8mph /  23.8km/h 22.4mph /  36.0km/h 78% 0in /  0.0mm
20:03 43.5 °F /  6.4 °C 37 °F /  2.8 °C 29.2in /  988.0hPa WSW 12.3mph /  19.8km/h 22.4mph /  36.0km/h 78% 0in /  0.0mm
20:08 43.3 °F /  6.3 °C 36.9 °F /  2.7 °C 29.2in /  989.1hPa SW 13.9mph /  22.4km/h 19.9mph /  32.0km/h 78% 0in /  0.0mm
20:13 43.3 °F /  6.3 °C 36.7 °F /  2.6 °C 29.2in /  989.1hPa WSW 12.8mph /  20.6km/h 19.7mph /  31.7km/h 77% 0in /  0.0mm
20:18 43.3 °F /  6.3 °C 36.9 °F /  2.7 °C 29.2in /  989.1hPa WSW 15.4mph /  24.8km/h 17.7mph /  28.5km/h 78% 0in /  0.0mm
20:23 43.3 °F /  6.3 °C 37.2 °F /  2.9 °C 29.2in /  989.1hPa WSW 17.2mph /  27.7km/h 18.6mph /  29.9km/h 79% 0in /  0.0mm
20:28 43.2 °F /  6.2 °C 37 °F /  2.8 °C 29.2in /  989.1hPa WSW 12.8mph /  20.6km/h 19.5mph /  31.4km/h 79% 0in /  0.0mm
20:33 43.2 °F /  6.2 °C 37.4 °F /  3.0 °C 29.2in /  989.1hPa WSW 15.2mph /  24.5km/h 19.5mph /  31.4km/h 80% 0in /  0.0mm
20:38 43.2 °F /  6.2 °C 37.4 °F /  3.0 °C 29.2in /  989.1hPa SW 15.2mph /  24.5km/h 20.1mph /  32.3km/h 80% 0in /  0.0mm
20:43 43.2 °F /  6.2 °C 37.4 °F /  3.0 °C 29.2in /  989.1hPa SW 13.9mph /  22.4km/h 23.3mph /  37.5km/h 80% 0in /  0.0mm
20:48 43.3 °F /  6.3 °C 37.2 °F /  2.9 °C 29.2in /  989.1hPa WSW 15.4mph /  24.8km/h 23.3mph /  37.5km/h 79% 0in /  0.0mm
20:53 43.2 °F /  6.2 °C 37 °F /  2.8 °C 29.2in /  988.0hPa SW 15.2mph /  24.5km/h 17.4mph /  28.0km/h 79% 0in /  0.0mm
20:58 43 °F /  6.1 °C 36.9 °F /  2.7 °C 29.2in /  988.0hPa WSW 17.7mph /  28.5km/h 17.7mph /  28.5km/h 79% 0in /  0.0mm
21:03 42.8 °F /  6.0 °C 37 °F /  2.8 °C 29.2in /  988.0hPa WSW 10.1mph /  16.3km/h 17.7mph /  28.5km/h 80% 0in /  0.0mm
21:08 42.8 °F /  6.0 °C 37 °F /  2.8 °C 29.2in /  989.1hPa WSW 10.1mph /  16.3km/h 16.8mph /  27.0km/h 80% 0in /  0.0mm
21:13 43 °F /  6.1 °C 37.2 °F /  2.9 °C 29.2in /  989.1hPa SW 13mph /  20.9km/h 16.8mph /  27.0km/h 80% 0in /  0.0mm
21:18 43.2 °F /  6.2 °C 37.4 °F /  3.0 °C 29.2in /  989.1hPa SSW 13mph /  20.9km/h 15.4mph /  24.8km/h 80% 0in /  0.0mm
21:23 43.2 °F /  6.2 °C 37.4 °F /  3.0 °C 29.2in /  990.1hPa SW 8.5mph /  13.7km/h 14.5mph /  23.3km/h 80% 0in /  0.0mm
21:28 43 °F /  6.1 °C 37.6 °F /  3.1 °C 29.2in /  990.1hPa SW 10.5mph /  16.9km/h 14.5mph /  23.3km/h 81% 0in /  0.0mm
21:33 43 °F /  6.1 °C 37.6 °F /  3.1 °C 29.2in /  990.1hPa SSW 8.1mph /  13.0km/h 14.8mph /  23.8km/h 81% 0in /  0.0mm
21:38 43 °F /  6.1 °C 37.6 °F /  3.1 °C 29.2in /  989.1hPa SSW 12.8mph /  20.6km/h 14.8mph /  23.8km/h 81% 0in /  0.0mm
21:43 43 °F /  6.1 °C 37.8 °F /  3.2 °C 29.2in /  989.1hPa SW 10.3mph /  16.6km/h 13mph /  20.9km/h 82% 0in /  0.0mm
21:48 42.8 °F /  6.0 °C 37.6 °F /  3.1 °C 29.2in /  989.1hPa SSW 10.7mph /  17.2km/h 14.8mph /  23.8km/h 82% 0in /  0.0mm
21:53 42.8 °F /  6.0 °C 37.6 °F /  3.1 °C 29.2in /  989.1hPa WSW 12.8mph /  20.6km/h 17.2mph /  27.7km/h 82% 0in /  0.0mm
21:58 41.5 °F /  5.3 °C 36.1 °F /  2.3 °C 29.2in /  989.1hPa West 12.8mph /  20.6km/h 27.1mph /  43.6km/h 81% 0in /  0.0mm
22:03 40.3 °F /  4.6 °C 35.8 °F /  2.1 °C 29.2in /  989.1hPa WSW 15.7mph /  25.3km/h 27.1mph /  43.6km/h 84% 0.01in /  0.3mm
22:04 40.3 °F /  4.6 °C 35.8 °F /  2.1 °C 29.2in /  989.1hPa WSW 15.7mph /  25.3km/h 27.1mph /  43.6km/h 84% 0.01in /  0.3mm
22:09 39.7 °F /  4.3 °C 36.5 °F /  2.5 °C 29.2in /  989.1hPa WSW 15.4mph /  24.8km/h 23mph /  37.0km/h 88% 0.01in /  0.3mm
22:14 39.6 °F /  4.2 °C 37.2 °F /  2.9 °C 29.2in /  989.1hPa WSW 15.4mph /  24.8km/h 20.8mph /  33.5km/h 91% 0.04in /  1.0mm
22:19 39.4 °F /  4.1 °C 37.6 °F /  3.1 °C 29.2in /  989.1hPa WSW 15.4mph /  24.8km/h 15.4mph /  24.8km/h 93% 0.04in /  1.0mm
22:24 38.8 °F /  3.8 °C 37.2 °F /  2.9 °C 29.2in /  989.1hPa WSW 15.4mph /  24.8km/h 15.4mph /  24.8km/h 94% 0.04in /  1.0mm
22:29 38.5 °F /  3.6 °C 37 °F /  2.8 °C 29.2in /  989.1hPa WSW 15.4mph /  24.8km/h 15.4mph /  24.8km/h 94% 0.04in /  1.0mm
22:34 38.1 °F /  3.4 °C 36.9 °F /  2.7 °C 29.2in /  989.1hPa WSW 15.4mph /  24.8km/h 15.4mph /  24.8km/h 95% 0.04in /  1.0mm
22:39 38.1 °F /  3.4 °C 36.9 °F /  2.7 °C 29.2in /  989.1hPa West 14.8mph /  23.8km/h 14.8mph /  23.8km/h 95% 0.12in /  3.0mm
22:44 38.1 °F /  3.4 °C 37 °F /  2.8 °C 29.2in /  989.1hPa WSW 16.1mph /  25.9km/h 21.9mph /  35.2km/h 96% 0.12in /  3.0mm
22:49 38.1 °F /  3.4 °C 37 °F /  2.8 °C 29.2in /  989.1hPa WSW 8.7mph /  14.0km/h 21.9mph /  35.2km/h 96% 0.12in /  3.0mm
22:54 37.9 °F /  3.3 °C 37 °F /  2.8 °C 29.2in /  989.1hPa SSW 10.3mph /  16.6km/h 16.1mph /  25.9km/h 96% 0.12in /  3.0mm
22:59 37.9 °F /  3.3 °C 37 °F /  2.8 °C 29.2in /  989.1hPa SSW 12.8mph /  20.6km/h 14.3mph /  23.0km/h 96% 0.11in /  2.8mm
23:04 37.8 °F /  3.2 °C 36.9 °F /  2.7 °C 29.2in /  989.1hPa WSW 10.1mph /  16.3km/h 14.3mph /  23.0km/h 96% 0.11in /  2.8mm
23:09 37.8 °F /  3.2 °C 36.9 °F /  2.7 °C 29.2in /  989.1hPa SW 7.6mph /  12.2km/h 12.8mph /  20.6km/h 96% 0.11in /  2.8mm
23:14 37.8 °F /  3.2 °C 36.9 °F /  2.7 °C 29.2in /  989.1hPa SW 5.8mph /  9.3km/h 11mph /  17.7km/h 96% 0.08in /  2.0mm
23:19 37.8 °F /  3.2 °C 37 °F /  2.8 °C 29.2in /  989.1hPa SW 4mph /  6.4km/h 11mph /  17.7km/h 97% 0.08in /  2.0mm
23:24 37.8 °F /  3.2 °C 37 °F /  2.8 °C 29.2in /  989.1hPa SSW 6.3mph /  10.1km/h 11mph /  17.7km/h 97% 0.08in /  2.0mm
23:29 37.8 °F /  3.2 °C 37 °F /  2.8 °C 29.2in /  989.1hPa SSW 10.3mph /  16.6km/h 11mph /  17.7km/h 97% 0.08in /  2.0mm
23:34 37.9 °F /  3.3 °C 37.2 °F /  2.9 °C 29.2in /  989.1hPa SSW 6.5mph /  10.5km/h 11mph /  17.7km/h 97% 0.08in /  2.0mm
23:39 38.5 °F /  3.6 °C 37.6 °F /  3.1 °C 29.2in /  989.1hPa SSW 14.5mph /  23.3km/h 14.5mph /  23.3km/h 97% 0in /  0.0mm
23:44 38.5 °F /  3.6 °C 37.8 °F /  3.2 °C 29.2in /  989.1hPa SSW 17.2mph /  27.7km/h 17.2mph /  27.7km/h 97% 0in /  0.0mm
23:49 38.8 °F /  3.8 °C 38.5 °F /  3.6 °C 29.2in /  989.1hPa SSW 12.5mph /  20.1km/h 17.2mph /  27.7km/h 98% 0in /  0.0mm
23:54 39.2 °F /  4.0 °C 38.5 °F /  3.6 °C 29.2in /  989.1hPa SSW 11.2mph /  18.0km/h 14.5mph /  23.3km/h 97% 0in /  0.0mm
23:59 39.6 °F /  4.2 °C 38.8 °F /  3.8 °C 29.2in /  989.1hPa WSW 8.1mph /  13.0km/h 14.8mph /  23.8km/h 97% 0.01in /  0.3mm
Données Historique de Météo Turbie

Mise a jour : 25/05/2018 07:00:14
Généré par Cumulus 1.9.4 (1099)